createdAt,value
2022-10-19T04:45:14.584Z,0.00
2022-10-19T04:46:14.524Z,0.00
2022-10-19T04:47:14.504Z,0.00
2022-10-19T04:48:15.217Z,0.00
2022-10-19T04:49:17.848Z,0.00
2022-10-19T04:50:15.478Z,0.00
2022-10-19T04:51:14.451Z,0.00
2022-10-19T04:52:14.452Z,0.00
2022-10-19T04:53:14.457Z,0.00
2022-10-19T04:54:14.413Z,0.00
2022-10-19T04:55:14.404Z,0.00
2022-10-19T04:56:14.410Z,0.00
2022-10-19T04:57:14.376Z,0.00
2022-10-19T04:58:14.377Z,0.00
2022-10-19T04:59:14.360Z,0.00
2022-10-19T05:00:14.365Z,0.00
2022-10-19T05:01:15.025Z,0.00
2022-10-19T05:02:14.338Z,0.00
2022-10-19T05:03:14.308Z,0.00
2022-10-19T05:04:14.310Z,0.00
2022-10-19T05:05:14.295Z,0.00
2022-10-19T05:06:14.287Z,0.00
2022-10-19T05:07:14.289Z,0.00
2022-10-19T05:08:14.288Z,0.00
2022-10-19T05:09:14.261Z,0.00
2022-10-19T05:10:14.247Z,0.00
2022-10-19T05:11:14.243Z,0.00
2022-10-19T05:12:14.229Z,0.00
2022-10-19T05:13:14.210Z,0.00
2022-10-19T05:14:14.267Z,0.00
2022-10-19T05:15:14.206Z,0.00
2022-10-19T05:16:14.281Z,0.00
2022-10-19T05:17:14.173Z,0.00
2022-10-19T05:18:14.154Z,0.00
2022-10-19T05:19:14.145Z,0.00
2022-10-19T05:20:14.157Z,0.00
2022-10-19T05:21:14.113Z,0.00
2022-10-19T05:22:14.109Z,0.00
2022-10-19T05:23:14.106Z,0.00
2022-10-19T05:24:14.112Z,0.00
2022-10-19T05:25:14.072Z,4.00
2022-10-19T05:26:14.067Z,0.00
2022-10-19T05:27:14.059Z,0.00
2022-10-19T05:28:14.057Z,4.00
2022-10-19T05:29:14.047Z,0.00
2022-10-19T05:30:14.054Z,4.00
2022-10-19T05:31:14.015Z,4.00
2022-10-19T05:32:14.031Z,4.00
2022-10-19T05:33:13.991Z,8.00
2022-10-19T05:34:13.988Z,4.00
2022-10-19T05:35:16.376Z,8.00
2022-10-19T05:36:13.966Z,12.00
2022-10-19T05:37:13.936Z,12.00
2022-10-19T05:38:13.957Z,12.00
2022-10-19T05:39:14.068Z,16.00
2022-10-19T05:40:13.913Z,20.00
2022-10-19T05:41:13.895Z,24.00
2022-10-19T05:42:13.895Z,24.00
2022-10-19T05:43:13.888Z,32.00
2022-10-19T05:44:13.893Z,36.00
2022-10-19T05:45:13.854Z,40.00
2022-10-19T05:46:13.876Z,48.00
2022-10-19T05:47:13.998Z,56.00
2022-10-19T05:48:13.823Z,60.00
2022-10-19T05:49:13.808Z,68.00
2022-10-19T05:50:13.900Z,76.00
2022-10-19T05:51:13.785Z,84.00
2022-10-19T05:52:13.797Z,96.00
2022-10-19T05:53:13.778Z,104.00
2022-10-19T05:54:13.775Z,116.00
2022-10-19T05:55:13.759Z,132.00
2022-10-19T05:56:13.773Z,140.00
2022-10-19T05:57:13.804Z,156.00
2022-10-19T05:58:13.723Z,176.00
2022-10-19T05:59:13.707Z,184.00
2022-10-19T06:00:13.715Z,200.00
2022-10-19T06:01:13.687Z,212.00
2022-10-19T06:02:13.728Z,232.00
2022-10-19T06:03:13.664Z,244.00
2022-10-19T06:04:13.703Z,264.00
2022-10-19T06:05:13.649Z,288.00
2022-10-19T06:06:14.590Z,316.00
2022-10-19T06:07:13.714Z,344.00
2022-10-19T06:08:13.605Z,376.00
2022-10-19T06:09:13.661Z,400.00
2022-10-19T06:10:13.593Z,428.00
2022-10-19T06:11:13.577Z,448.00
2022-10-19T06:12:15.792Z,472.00
2022-10-19T06:13:13.555Z,500.00
2022-10-19T06:14:13.551Z,524.00
2022-10-19T06:15:13.539Z,548.00
2022-10-19T06:16:13.569Z,572.00
2022-10-19T06:17:13.585Z,596.00
2022-10-19T06:18:13.708Z,612.00
2022-10-19T06:19:13.481Z,636.00
2022-10-19T06:20:13.480Z,664.00
2022-10-19T06:21:13.489Z,696.00
2022-10-19T06:22:13.478Z,728.00
2022-10-19T06:23:13.446Z,768.00
2022-10-19T06:24:13.438Z,800.00
2022-10-19T06:25:16.633Z,832.00
2022-10-19T06:26:14.432Z,872.00
2022-10-19T06:27:13.510Z,904.00
2022-10-19T06:28:13.412Z,924.00
2022-10-19T06:29:13.389Z,960.00
2022-10-19T06:30:13.447Z,992.00
2022-10-19T06:31:13.358Z,1016.00
2022-10-19T06:32:13.379Z,1036.00
2022-10-19T06:33:13.385Z,1072.00
2022-10-19T06:34:13.404Z,1104.00
2022-10-19T06:35:13.315Z,1124.00
2022-10-19T06:36:13.311Z,1144.00
2022-10-19T06:37:13.312Z,1148.00
2022-10-19T06:38:13.293Z,1160.00
2022-10-19T06:39:13.283Z,1180.00
2022-10-19T06:40:13.319Z,1204.00
2022-10-19T06:41:13.328Z,1220.00
2022-10-19T06:42:13.253Z,1228.00
2022-10-19T06:43:13.225Z,1256.00
2022-10-19T06:44:13.219Z,1308.00
2022-10-19T06:45:13.207Z,1324.00
2022-10-19T06:46:13.228Z,1352.00
2022-10-19T06:47:13.193Z,1356.00
2022-10-19T06:48:13.194Z,1424.00
2022-10-19T06:49:13.265Z,1476.00
2022-10-19T06:50:13.166Z,1452.00
2022-10-19T06:51:13.232Z,1532.00
2022-10-19T06:52:13.228Z,1632.00
2022-10-19T06:53:13.235Z,1688.00
2022-10-19T06:54:13.166Z,1780.00
2022-10-19T06:55:13.096Z,1852.00
2022-10-19T06:56:13.304Z,1916.00
2022-10-19T06:57:13.116Z,1996.00
2022-10-19T06:58:13.302Z,2096.00
2022-10-19T06:59:14.090Z,2172.00
2022-10-19T07:00:13.072Z,2208.00
2022-10-19T07:01:13.351Z,2212.00
2022-10-19T07:02:13.024Z,2116.00
2022-10-19T07:03:13.010Z,2060.00
2022-10-19T07:04:13.016Z,2048.00
2022-10-19T07:05:12.992Z,2096.00
2022-10-19T07:06:12.995Z,2276.00
2022-10-19T07:07:12.966Z,2536.00
2022-10-19T07:08:13.019Z,2768.00
2022-10-19T07:09:13.097Z,2916.00
2022-10-19T07:10:12.950Z,2976.00
2022-10-19T07:11:13.044Z,3064.00
2022-10-19T07:12:12.923Z,3136.00
2022-10-19T07:13:12.930Z,3196.00
2022-10-19T07:14:12.897Z,3232.00
2022-10-19T07:15:12.879Z,3320.00
2022-10-19T07:16:16.091Z,3372.00
2022-10-19T07:17:13.864Z,3412.00
2022-10-19T07:18:12.859Z,3440.00
2022-10-19T07:19:12.828Z,3320.00
2022-10-19T07:20:12.969Z,3164.00
2022-10-19T07:21:12.823Z,3116.00
2022-10-19T07:22:18.597Z,3144.00
2022-10-19T07:23:14.118Z,3248.00
2022-10-19T07:24:12.873Z,3380.00
2022-10-19T07:25:13.248Z,3520.00
2022-10-19T07:26:12.788Z,3604.00
2022-10-19T07:27:12.751Z,3660.00
2022-10-19T07:28:12.780Z,3732.00
2022-10-19T07:29:12.734Z,3772.00
2022-10-19T07:30:12.716Z,3836.00
2022-10-19T07:31:12.712Z,3948.00
2022-10-19T07:32:12.711Z,4040.00
2022-10-19T07:33:12.775Z,4092.00
2022-10-19T07:34:12.693Z,4168.00
2022-10-19T07:35:12.673Z,4220.00
2022-10-19T07:36:12.669Z,4264.00
2022-10-19T07:37:12.649Z,4244.00
2022-10-19T07:38:12.634Z,4284.00
2022-10-19T07:39:12.638Z,4320.00
2022-10-19T07:40:12.619Z,4276.00
2022-10-19T07:41:12.610Z,4260.00
2022-10-19T07:42:12.707Z,4224.00
2022-10-19T07:43:12.832Z,4160.00
2022-10-19T07:44:15.534Z,4220.00
2022-10-19T07:45:12.557Z,4232.00
2022-10-19T07:46:12.549Z,4408.00
2022-10-19T07:47:12.537Z,4488.00
2022-10-19T07:48:12.524Z,4484.00
2022-10-19T07:49:12.516Z,4620.00
2022-10-19T07:50:12.504Z,4852.00
2022-10-19T07:51:13.209Z,5152.00
2022-10-19T07:52:12.504Z,5408.00
2022-10-19T07:53:12.465Z,5608.00
2022-10-19T07:54:12.667Z,5744.00
2022-10-19T07:55:12.448Z,5684.00
2022-10-19T07:56:12.452Z,5596.00
2022-10-19T07:57:12.524Z,5512.00
2022-10-19T07:58:12.420Z,5516.00
2022-10-19T07:59:12.411Z,5580.00
2022-10-19T08:00:12.395Z,5592.00
2022-10-19T08:01:12.381Z,5492.00
2022-10-19T08:02:12.591Z,5112.00
2022-10-19T08:03:57.145Z,5068.00
2022-10-19T08:04:49.079Z,5024.00
2022-10-19T08:05:13.691Z,4984.00
2022-10-19T08:06:12.402Z,4924.00
2022-10-19T08:07:12.331Z,4652.00
2022-10-19T08:08:12.297Z,4272.00
2022-10-19T08:09:27.734Z,4356.00
2022-10-19T08:10:13.293Z,4684.00
2022-10-19T08:11:12.265Z,5052.00
2022-10-19T08:12:15.206Z,5496.00
2022-10-19T08:13:12.248Z,5860.00
2022-10-19T08:14:12.283Z,5980.00
2022-10-19T08:15:12.235Z,6064.00
2022-10-19T08:16:12.394Z,6488.00
2022-10-19T08:17:12.214Z,6932.00
2022-10-19T08:18:12.198Z,7140.00
2022-10-19T08:19:12.252Z,7116.00
2022-10-19T08:20:12.227Z,7052.00
2022-10-19T08:21:12.176Z,7048.00
2022-10-19T08:22:12.313Z,7204.00
2022-10-19T08:23:12.239Z,7132.00
2022-10-19T08:24:12.257Z,7228.00
2022-10-19T08:25:12.106Z,7236.00
2022-10-19T08:26:12.121Z,7028.00
2022-10-19T08:27:12.134Z,6992.00
2022-10-19T08:28:12.119Z,7284.00
2022-10-19T08:29:12.133Z,7288.00
2022-10-19T08:30:12.076Z,7572.00
2022-10-19T08:31:12.071Z,7952.00
2022-10-19T08:32:12.048Z,8172.00
2022-10-19T08:33:12.051Z,8308.00
2022-10-19T08:34:12.040Z,8420.00
2022-10-19T08:35:12.068Z,8512.00
2022-10-19T08:36:12.012Z,8508.00
2022-10-19T08:37:25.729Z,7912.00
2022-10-19T08:38:12.988Z,7436.00
2022-10-19T08:39:12.134Z,7292.00
2022-10-19T08:40:11.992Z,7812.00
2022-10-19T08:41:12.156Z,8624.00
2022-10-19T08:42:12.001Z,9636.00
2022-10-19T08:43:12.178Z,10508.00
2022-10-19T08:44:11.911Z,10940.00
2022-10-19T08:45:11.897Z,10708.00
2022-10-19T08:46:11.950Z,9640.00
2022-10-19T08:47:12.542Z,8748.00
2022-10-19T08:48:11.886Z,8900.00
2022-10-19T08:49:11.872Z,9500.00
2022-10-19T08:50:12.027Z,9752.00
2022-10-19T08:51:12.257Z,9916.00
2022-10-19T08:52:12.289Z,10512.00
2022-10-19T08:53:12.298Z,10808.00
2022-10-19T08:54:11.893Z,11160.00
2022-10-19T08:55:15.114Z,11284.00
2022-10-19T08:56:22.133Z,11316.00
2022-10-19T08:57:13.147Z,10776.00
2022-10-19T08:58:11.812Z,10592.00
2022-10-19T08:59:11.767Z,10600.00
2022-10-19T09:00:11.899Z,10576.00
2022-10-19T09:01:11.947Z,10792.00
2022-10-19T09:02:11.721Z,11496.00
2022-10-19T09:03:11.692Z,11812.00
2022-10-19T09:04:11.678Z,11428.00
2022-10-19T09:05:11.696Z,11280.00
2022-10-19T09:06:11.691Z,12064.00
2022-10-19T09:07:11.682Z,11024.00
2022-10-19T09:08:16.710Z,10940.00
2022-10-19T09:09:12.642Z,11044.00
2022-10-19T09:10:11.665Z,11324.00
2022-10-19T09:11:11.624Z,11048.00
2022-10-19T09:12:11.619Z,11464.00
2022-10-19T09:13:11.679Z,12260.00
2022-10-19T09:14:11.629Z,13056.00
2022-10-19T09:15:11.783Z,12788.00
2022-10-19T09:16:11.558Z,12692.00
2022-10-19T09:17:11.589Z,12308.00
2022-10-19T09:18:11.656Z,13108.00
2022-10-19T09:19:11.569Z,13664.00
2022-10-19T09:20:11.537Z,13716.00
2022-10-19T09:21:11.791Z,13696.00
2022-10-19T09:22:11.533Z,13692.00
2022-10-19T09:23:13.413Z,13720.00
2022-10-19T09:24:11.495Z,13660.00
2022-10-19T09:25:11.496Z,14052.00
2022-10-19T09:26:11.624Z,13720.00
2022-10-19T09:27:11.451Z,13832.00
2022-10-19T09:28:11.434Z,14196.00
2022-10-19T09:29:11.505Z,13884.00
2022-10-19T09:30:11.644Z,13880.00
2022-10-19T09:31:11.807Z,13128.00
2022-10-19T09:32:11.391Z,12848.00
2022-10-19T09:33:15.258Z,12700.00
2022-10-19T09:34:11.375Z,12616.00
2022-10-19T09:35:11.433Z,12056.00
2022-10-19T09:36:22.284Z,12116.00
2022-10-19T09:37:18.792Z,12332.00
2022-10-19T09:38:12.713Z,12432.00
2022-10-19T09:39:11.317Z,12584.00
2022-10-19T09:40:11.294Z,13560.00
2022-10-19T09:41:11.285Z,13968.00
2022-10-19T09:42:11.294Z,13836.00
2022-10-19T09:43:11.286Z,15552.00
2022-10-19T09:44:11.253Z,14944.00
2022-10-19T09:45:11.282Z,15040.00
2022-10-19T09:46:19.403Z,12948.00
2022-10-19T09:47:13.815Z,12476.00
2022-10-19T09:48:13.170Z,11844.00
2022-10-19T09:49:11.273Z,11060.00
2022-10-19T09:50:11.245Z,10584.00
2022-10-19T09:51:11.275Z,10376.00
2022-10-19T09:52:11.172Z,10300.00
2022-10-19T09:53:11.185Z,10248.00
2022-10-19T09:54:11.146Z,10188.00
2022-10-19T09:55:11.523Z,10100.00
2022-10-19T09:56:11.296Z,10084.00
2022-10-19T09:57:11.274Z,10504.00
2022-10-19T09:58:11.280Z,11512.00
2022-10-19T09:59:11.287Z,12060.00
2022-10-19T10:00:11.070Z,12660.00
2022-10-19T10:01:11.082Z,15104.00
2022-10-19T10:02:11.057Z,13640.00
2022-10-19T10:03:11.280Z,13480.00
2022-10-19T10:04:11.070Z,13384.00
2022-10-19T10:05:11.050Z,13436.00
2022-10-19T10:06:11.012Z,13128.00
2022-10-19T10:07:11.144Z,12896.00
2022-10-19T10:08:11.001Z,12452.00
2022-10-19T10:09:11.292Z,11884.00
2022-10-19T10:10:10.964Z,11188.00
2022-10-19T10:11:10.999Z,10612.00
2022-10-19T10:12:10.965Z,10284.00
2022-10-19T10:13:10.934Z,10388.00
2022-10-19T10:14:10.965Z,10708.00
2022-10-19T10:15:10.949Z,11108.00
2022-10-19T10:16:10.897Z,11300.00
2022-10-19T10:17:10.895Z,11448.00
2022-10-19T10:18:10.876Z,11656.00
2022-10-19T10:19:10.881Z,11820.00
2022-10-19T10:20:10.862Z,11828.00
2022-10-19T10:21:10.848Z,11452.00
2022-10-19T10:22:10.855Z,10832.00
2022-10-19T10:23:10.810Z,10320.00
2022-10-19T10:24:10.806Z,10104.00
2022-10-19T10:25:10.799Z,10040.00
2022-10-19T10:26:10.900Z,9772.00
2022-10-19T10:27:10.789Z,9592.00
2022-10-19T10:28:10.766Z,9532.00
2022-10-19T10:29:10.776Z,9580.00
2022-10-19T10:30:11.066Z,9600.00
2022-10-19T10:31:10.729Z,9460.00
2022-10-19T10:32:10.721Z,9212.00
2022-10-19T10:33:15.925Z,8964.00
2022-10-19T10:34:23.044Z,8804.00
2022-10-19T10:35:11.695Z,8852.00
2022-10-19T10:36:10.749Z,8900.00
2022-10-19T10:37:10.677Z,8812.00
2022-10-19T10:38:10.812Z,8616.00
2022-10-19T10:39:11.112Z,8368.00
2022-10-19T10:40:10.987Z,8308.00
2022-10-19T10:41:11.121Z,8308.00
2022-10-19T10:42:10.732Z,8288.00
2022-10-19T10:43:10.948Z,8340.00
2022-10-19T10:44:10.797Z,8444.00
2022-10-19T10:45:11.249Z,8712.00
2022-10-19T10:46:10.637Z,8740.00
2022-10-19T10:47:10.682Z,8720.00
2022-10-19T10:48:10.545Z,8876.00
2022-10-19T10:49:10.685Z,9424.00
2022-10-19T10:50:10.691Z,10268.00
2022-10-19T10:51:10.512Z,10628.00
2022-10-19T10:52:10.504Z,11436.00
2022-10-19T10:53:10.555Z,13000.00
2022-10-19T10:54:10.489Z,11004.00
2022-10-19T10:55:10.475Z,10480.00
2022-10-19T10:56:10.459Z,10264.00
2022-10-19T10:57:10.555Z,10256.00
2022-10-19T10:58:10.431Z,10320.00
2022-10-19T10:59:10.455Z,10376.00
2022-10-19T11:00:10.412Z,10584.00
2022-10-19T11:01:10.428Z,11276.00
2022-10-19T11:02:10.824Z,12020.00
2022-10-19T11:03:10.521Z,12880.00
2022-10-19T11:04:10.395Z,15872.00
2022-10-19T11:05:10.679Z,12992.00
2022-10-19T11:06:10.434Z,12456.00
2022-10-19T11:07:10.480Z,12276.00
2022-10-19T11:08:10.451Z,12660.00
2022-10-19T11:09:10.372Z,14168.00
2022-10-19T11:10:10.298Z,19488.00
2022-10-19T11:11:10.298Z,22080.00
2022-10-19T11:12:10.287Z,41408.00
2022-10-19T11:13:10.277Z,21248.00
2022-10-19T11:14:10.373Z,29344.00
2022-10-19T11:15:10.283Z,28160.00
2022-10-19T11:16:10.241Z,25760.00
2022-10-19T11:17:10.718Z,55520.00
2022-10-19T11:18:10.206Z,25120.00
2022-10-19T11:19:10.235Z,23168.00
2022-10-19T11:20:10.264Z,23360.00
2022-10-19T11:21:10.209Z,27008.00
2022-10-19T11:22:10.477Z,24256.00
2022-10-19T11:23:10.238Z,26112.00
2022-10-19T11:24:10.145Z,22624.00
2022-10-19T11:25:10.163Z,20512.00
2022-10-19T11:26:10.136Z,19872.00
2022-10-19T11:27:10.110Z,20256.00
2022-10-19T11:28:10.169Z,22176.00
2022-10-19T11:29:10.295Z,21792.00
2022-10-19T11:30:10.077Z,22016.00
2022-10-19T11:31:10.059Z,22016.00
2022-10-19T11:32:10.193Z,22752.00
2022-10-19T11:33:10.053Z,23072.00
2022-10-19T11:34:10.047Z,22176.00
2022-10-19T11:35:10.055Z,21408.00
2022-10-19T11:36:10.096Z,22272.00
2022-10-19T11:37:10.316Z,30752.00
2022-10-19T11:38:29.813Z,56128.00
2022-10-19T11:39:11.043Z,32480.00
2022-10-19T11:40:10.207Z,55232.00
2022-10-19T11:41:17.814Z,45952.00
2022-10-19T11:42:10.937Z,59232.00
2022-10-19T11:43:09.939Z,86464.00
2022-10-19T11:44:09.925Z,86976.00
2022-10-19T11:45:09.921Z,85344.00
2022-10-19T11:46:09.900Z,84288.00
2022-10-19T11:47:09.910Z,84448.00
2022-10-19T11:48:09.890Z,84864.00
2022-10-19T11:49:09.885Z,82464.00
2022-10-19T11:51:21.109Z,86752.00
2022-10-19T11:52:11.214Z,79520.00
2022-10-19T11:53:09.859Z,83680.00
2022-10-19T11:54:14.583Z,77472.00
2022-10-19T11:55:09.823Z,76160.00
2022-10-19T11:56:09.848Z,77696.00
2022-10-19T11:57:11.635Z,76704.00
2022-10-19T11:58:09.780Z,82464.00
2022-10-19T11:59:09.865Z,62944.00
2022-10-19T12:00:15.323Z,27456.00
2022-10-19T12:01:10.828Z,21216.00
2022-10-19T12:02:09.873Z,29216.00
2022-10-19T12:03:09.731Z,18272.00
2022-10-19T12:04:09.736Z,18848.00
2022-10-19T12:05:09.960Z,18976.00
2022-10-19T12:06:09.810Z,28064.00
2022-10-19T12:07:09.681Z,20768.00
2022-10-19T12:08:09.742Z,19264.00
2022-10-19T12:09:09.719Z,20000.00
2022-10-19T12:10:09.649Z,19360.00
2022-10-19T12:11:09.644Z,18240.00
2022-10-19T12:12:09.659Z,16640.00
2022-10-19T12:13:09.641Z,15724.00
2022-10-19T12:14:09.598Z,16640.00
2022-10-19T12:15:09.594Z,16128.00
2022-10-19T12:16:09.569Z,16480.00
2022-10-19T12:17:09.626Z,27072.00
2022-10-19T12:18:09.559Z,18560.00
2022-10-19T12:19:09.553Z,17536.00
2022-10-19T12:20:09.911Z,23008.00
2022-10-19T12:21:09.526Z,19488.00
2022-10-19T12:22:10.166Z,18304.00
2022-10-19T12:23:09.512Z,17792.00
2022-10-19T12:24:09.489Z,16608.00
2022-10-19T12:25:09.571Z,16416.00
2022-10-19T12:26:09.766Z,17120.00
2022-10-19T12:27:09.483Z,17280.00
2022-10-19T12:28:09.961Z,18304.00
2022-10-19T12:29:09.466Z,17344.00
2022-10-19T12:30:09.511Z,15968.00
2022-10-19T12:31:09.498Z,16032.00
2022-10-19T12:32:09.538Z,15840.00
2022-10-19T12:33:09.389Z,15024.00
2022-10-19T12:34:09.411Z,14256.00
2022-10-19T12:35:09.521Z,14380.00
2022-10-19T12:36:09.666Z,14816.00
2022-10-19T12:37:09.359Z,15136.00
2022-10-19T12:38:09.365Z,15568.00
2022-10-19T12:39:09.433Z,15432.00
2022-10-19T12:40:09.477Z,15164.00
2022-10-19T12:41:09.388Z,16704.00
2022-10-19T12:42:09.552Z,22560.00
2022-10-19T12:43:09.285Z,18272.00
2022-10-19T12:44:09.276Z,25184.00
2022-10-19T12:45:09.265Z,84928.00
2022-10-19T12:46:09.268Z,23424.00
2022-10-19T12:47:09.267Z,21216.00
2022-10-19T12:48:09.243Z,24448.00
2022-10-19T12:49:09.242Z,22592.00
2022-10-19T12:50:09.382Z,24864.00
2022-10-19T12:51:09.249Z,24288.00
2022-10-19T12:52:09.241Z,26496.00
2022-10-19T12:53:09.186Z,30432.00
2022-10-19T12:54:09.247Z,62720.00
2022-10-19T12:55:09.213Z,81440.00
2022-10-19T12:56:09.144Z,79520.00
2022-10-19T12:57:09.126Z,80704.00
2022-10-19T12:58:09.156Z,77472.00
2022-10-19T12:59:09.214Z,66592.00
2022-10-19T13:00:09.267Z,45984.00
2022-10-19T13:01:09.293Z,28224.00
2022-10-19T13:02:09.091Z,25440.00
2022-10-19T13:03:09.138Z,62720.00
2022-10-19T13:04:09.086Z,28864.00
2022-10-19T13:05:09.055Z,30816.00
2022-10-19T13:06:09.031Z,55168.00
2022-10-19T13:07:09.032Z,26592.00
2022-10-19T13:08:12.104Z,19968.00
2022-10-19T13:09:10.220Z,19104.00
2022-10-19T13:10:09.148Z,18304.00
2022-10-19T13:11:08.965Z,18112.00
2022-10-19T13:12:08.981Z,17984.00
2022-10-19T13:13:09.014Z,18464.00
2022-10-19T13:14:08.987Z,18176.00
2022-10-19T13:15:08.941Z,18144.00
2022-10-19T13:16:08.941Z,18400.00
2022-10-19T13:17:09.028Z,20512.00
2022-10-19T13:18:09.063Z,18720.00
2022-10-19T13:19:08.905Z,18816.00
2022-10-19T13:20:08.924Z,18464.00
2022-10-19T13:21:08.873Z,18912.00
2022-10-19T13:22:08.877Z,20640.00
2022-10-19T13:23:09.101Z,20000.00
2022-10-19T13:24:09.214Z,20160.00
2022-10-19T13:25:09.001Z,24128.00
2022-10-19T13:26:08.827Z,20864.00
2022-10-19T13:27:08.809Z,21536.00
2022-10-19T13:28:08.805Z,26016.00
2022-10-19T13:29:08.930Z,26784.00
2022-10-19T13:30:09.319Z,27936.00
2022-10-19T13:31:12.904Z,26464.00
2022-10-19T13:32:09.853Z,26464.00
2022-10-19T13:33:09.231Z,29152.00
2022-10-19T13:34:08.748Z,27712.00
2022-10-19T13:35:08.784Z,37920.00
2022-10-19T13:36:08.834Z,45632.00
2022-10-19T13:37:08.877Z,34464.00
2022-10-19T13:38:08.963Z,27360.00
2022-10-19T13:39:08.679Z,37728.00
2022-10-19T13:40:08.689Z,31584.00
2022-10-19T13:41:08.821Z,29376.00
2022-10-19T13:42:08.646Z,36160.00
2022-10-19T13:43:08.647Z,39456.00
2022-10-19T13:44:09.203Z,39840.00
2022-10-19T13:45:08.634Z,35936.00
2022-10-19T13:46:08.599Z,52896.00
2022-10-19T13:47:08.814Z,57088.00
2022-10-19T13:48:08.960Z,72992.00
2022-10-19T13:49:08.950Z,65088.00
2022-10-19T13:50:08.544Z,63616.00
2022-10-19T13:51:08.595Z,40288.00
2022-10-19T13:52:08.606Z,26432.00
2022-10-19T13:53:08.675Z,25792.00
2022-10-19T13:54:08.710Z,36192.00
2022-10-19T13:55:08.530Z,30944.00
2022-10-19T13:56:08.487Z,41088.00
2022-10-19T13:57:08.492Z,38720.00
2022-10-19T13:58:08.473Z,34496.00
2022-10-19T13:59:08.645Z,53984.00
2022-10-19T14:00:08.662Z,49664.00
2022-10-19T14:01:08.503Z,63552.00
2022-10-19T14:02:08.719Z,74464.00
2022-10-19T14:03:11.584Z,47840.00
2022-10-19T14:04:09.761Z,46944.00
2022-10-19T14:05:08.406Z,43264.00
2022-10-19T14:06:08.381Z,48960.00
2022-10-19T14:07:08.405Z,68224.00
2022-10-19T14:08:08.361Z,69216.00
2022-10-19T14:09:08.436Z,71744.00
2022-10-19T14:10:08.353Z,59840.00
2022-10-19T14:11:08.357Z,60320.00
2022-10-19T14:12:08.312Z,55168.00
2022-10-19T14:13:08.598Z,46368.00
2022-10-19T14:14:08.312Z,46496.00
2022-10-19T14:15:08.296Z,52800.00
2022-10-19T14:16:08.489Z,52608.00
2022-10-19T14:17:08.477Z,48800.00
2022-10-19T14:18:12.012Z,47040.00
2022-10-19T14:19:09.239Z,51552.00
2022-10-19T14:20:08.232Z,60832.00
2022-10-19T14:21:08.328Z,50432.00
2022-10-19T14:22:08.350Z,47904.00
2022-10-19T14:23:08.234Z,52768.00
2022-10-19T14:24:08.191Z,50880.00
2022-10-19T14:25:08.208Z,69440.00
2022-10-19T14:26:08.301Z,54752.00
2022-10-19T14:27:08.169Z,57568.00
2022-10-19T14:28:08.196Z,53248.00
2022-10-19T14:29:08.198Z,47008.00
2022-10-19T14:30:08.339Z,47520.00
2022-10-19T14:31:08.105Z,50784.00
2022-10-19T14:32:08.095Z,71232.00
2022-10-19T14:33:08.090Z,84448.00
2022-10-19T14:34:08.279Z,85056.00
2022-10-19T14:35:08.081Z,85280.00
2022-10-19T14:36:08.144Z,80736.00
2022-10-19T14:37:08.115Z,84096.00
2022-10-19T14:38:08.042Z,84512.00
2022-10-19T14:39:08.308Z,79040.00
2022-10-19T14:40:08.060Z,74976.00
2022-10-19T14:41:08.106Z,26752.00
2022-10-19T14:42:08.158Z,71552.00
2022-10-19T14:43:08.224Z,76832.00
2022-10-19T14:44:08.272Z,80736.00
2022-10-19T14:45:08.302Z,83744.00
2022-10-19T14:46:07.967Z,77472.00
2022-10-19T14:47:07.978Z,78976.00
2022-10-19T14:48:07.978Z,79360.00
2022-10-19T14:49:08.016Z,79424.00
2022-10-19T14:50:08.056Z,75488.00
2022-10-19T14:51:07.917Z,73856.00
2022-10-19T14:52:08.016Z,68320.00
2022-10-19T14:53:07.873Z,72736.00
2022-10-19T14:54:07.860Z,74848.00
2022-10-19T14:55:07.913Z,76160.00
2022-10-19T14:56:07.837Z,73152.00
2022-10-19T14:57:07.818Z,79776.00
2022-10-19T14:58:08.090Z,83232.00
2022-10-19T14:59:07.851Z,77728.00
2022-10-19T15:00:07.972Z,58336.00
2022-10-19T15:01:08.084Z,42272.00
2022-10-19T15:02:07.997Z,43648.00
2022-10-19T15:03:07.768Z,50336.00
2022-10-19T15:04:07.761Z,60448.00
2022-10-19T15:05:09.401Z,60128.00
2022-10-19T15:06:07.747Z,61248.00
2022-10-19T15:07:07.854Z,53600.00
2022-10-19T15:08:07.704Z,61792.00
2022-10-19T15:09:15.416Z,60000.00
2022-10-19T15:10:08.749Z,62528.00
2022-10-19T15:11:07.991Z,59744.00
2022-10-19T15:12:07.700Z,58656.00
2022-10-19T15:13:07.709Z,59808.00
2022-10-19T15:14:07.798Z,65376.00
2022-10-19T15:15:07.814Z,68352.00
2022-10-19T15:16:07.619Z,71520.00
2022-10-19T15:17:07.621Z,72352.00
2022-10-19T15:18:13.213Z,71104.00
2022-10-19T15:19:08.651Z,65568.00
2022-10-19T15:20:07.706Z,58976.00
2022-10-19T15:21:12.583Z,56512.00
2022-10-19T15:22:08.946Z,55136.00
2022-10-19T15:23:07.538Z,53152.00
2022-10-19T15:24:07.885Z,50624.00
2022-10-19T15:25:07.519Z,47584.00
2022-10-19T15:26:16.434Z,42528.00
2022-10-19T15:27:09.543Z,34400.00
2022-10-19T15:28:07.549Z,28928.00
2022-10-19T15:29:07.604Z,29280.00
2022-10-19T15:30:07.514Z,30784.00
2022-10-19T15:31:07.573Z,29152.00
2022-10-19T15:32:07.467Z,27744.00
2022-10-19T15:33:07.479Z,23392.00
2022-10-19T15:34:07.535Z,19840.00
2022-10-19T15:35:11.136Z,16928.00
2022-10-19T15:36:07.580Z,14592.00
2022-10-19T15:37:09.527Z,13472.00
2022-10-19T15:38:07.380Z,12048.00
2022-10-19T15:39:18.249Z,11456.00
2022-10-19T15:40:08.370Z,10616.00
2022-10-19T15:41:07.347Z,9288.00
2022-10-19T15:42:07.373Z,7864.00
2022-10-19T15:43:07.370Z,6728.00
2022-10-19T15:44:07.314Z,6032.00
2022-10-19T15:45:07.398Z,5572.00
2022-10-19T15:46:07.309Z,5132.00
2022-10-19T15:47:07.494Z,4752.00
2022-10-19T15:48:07.298Z,4436.00
2022-10-19T15:49:07.260Z,4124.00
2022-10-19T15:50:07.241Z,3868.00
2022-10-19T15:51:07.249Z,3708.00
2022-10-19T15:52:07.237Z,3600.00
2022-10-19T15:53:07.224Z,3416.00
2022-10-19T15:54:07.215Z,3168.00
2022-10-19T15:55:07.211Z,2912.00
2022-10-19T15:56:07.188Z,2700.00
2022-10-19T15:57:07.219Z,2528.00
2022-10-19T15:58:07.203Z,2376.00
2022-10-19T15:59:07.146Z,2236.00
2022-10-19T16:00:07.228Z,2100.00
2022-10-19T16:01:07.133Z,1980.00
2022-10-19T16:02:07.161Z,1868.00
2022-10-19T16:03:07.125Z,1764.00
2022-10-19T16:04:07.102Z,1672.00
2022-10-19T16:06:07.136Z,1488.00
2022-10-19T16:07:07.630Z,1404.00
2022-10-19T16:08:10.126Z,1324.00
2022-10-19T16:09:08.564Z,1240.00
2022-10-19T16:10:07.033Z,1160.00
2022-10-19T16:11:07.210Z,1084.00
2022-10-19T16:12:07.015Z,1012.00
2022-10-19T16:13:06.996Z,940.00
2022-10-19T16:14:07.070Z,872.00
2022-10-19T16:15:06.978Z,808.00
2022-10-19T16:16:11.330Z,744.00
2022-10-19T16:17:06.965Z,688.00
2022-10-19T16:18:06.938Z,628.00
2022-10-19T16:19:06.930Z,572.00
2022-10-19T16:20:06.946Z,524.00
2022-10-19T16:21:06.915Z,476.00
2022-10-19T16:22:06.911Z,432.00
2022-10-19T16:23:06.969Z,396.00
2022-10-19T16:24:06.879Z,360.00
2022-10-19T16:25:07.026Z,328.00
2022-10-19T16:26:06.866Z,300.00
2022-10-19T16:27:06.923Z,276.00
2022-10-19T16:28:06.829Z,252.00
2022-10-19T16:29:06.830Z,228.00
2022-10-19T16:30:06.800Z,204.00
2022-10-19T16:31:06.801Z,188.00
2022-10-19T16:32:06.793Z,168.00
2022-10-19T16:33:07.141Z,148.00
2022-10-19T16:34:06.892Z,132.00
2022-10-19T16:35:06.945Z,116.00
2022-10-19T16:36:06.893Z,100.00
2022-10-19T16:37:07.609Z,88.00
2022-10-19T16:38:06.857Z,76.00
2022-10-19T16:39:06.988Z,64.00
2022-10-19T16:40:06.707Z,56.00
2022-10-19T16:41:06.702Z,44.00
2022-10-19T16:42:06.669Z,36.00
2022-10-19T16:43:06.669Z,32.00
2022-10-19T16:44:06.860Z,28.00
2022-10-19T16:45:06.647Z,24.00
2022-10-19T16:46:07.204Z,20.00
2022-10-19T16:47:06.625Z,16.00
2022-10-19T16:48:06.621Z,16.00
2022-10-19T16:49:06.672Z,12.00